• Join FlightAware (Why Join?)
  • Login
  • US Flag 
10:01AM EDT


 

Airport Tracker/Info


-or-


 

Live Flight TrackerFlight Track Log ✈ AWI3725 ✈ 27-Apr-2014 ✈ KBTV - KDCA

Flight Track Log - Related Links

Times and Time Zones

All times are in EDT time to prevent confusion due to time zone crossing. See the AWI3725 flight status page for this flight to view local times or setup timezone preferences in your user account.

Time Position Orientation Groundspeed Altitude Reporting Facility
EDT Latitude Longitude Course Direction KTS MPH feet Rate Location/Type
06:11AM 44.4558 -73.2506 195° South 226 260 6,400  Level Boston Center
06:12AM 44.1712 -73.2582 196° South  Level FlightAware Approximate
06:12AM 44.3878 -73.2725 193° South 267 307 8,800  Level Boston Center
06:13AM 44.0731 -73.2974 196° South  Level FlightAware Approximate
06:13AM 44.3050 -73.2983 193° South 284 327 11,600  Level Boston Center
06:14AM 43.9749 -73.3368 196° South  Level FlightAware Approximate
06:14AM 44.2217 -73.3264 194° South 309 356 14,000  Level Boston Center
06:15AM 43.8766 -73.3753 195° South  Level FlightAware Approximate
06:15AM 44.1342 -73.3556 193° South 323 372 16,700  Level Boston Center
06:16AM 43.7829 -73.4100 195° South  Level FlightAware Approximate
06:16AM 44.0444 -73.3858 194° South 331 381 19,000  Level Boston Center
06:17AM 43.6893 -73.4445 195° South  Level FlightAware Approximate
06:17AM 43.9436 -73.4197 194° South 350 403 21,000  Level Boston Center
06:18AM 43.8450 -73.4517 193° South 360 414 23,100 1,680 Climbing Boston Center
06:19AM 43.7453 -73.4842 193° South 367 422 24,500 1,140 Climbing Boston Center
06:20AM 43.6433 -73.5169 193° South 374 430 25,500 960 Climbing Boston Center
06:21AM 43.5347 -73.5514 193° South 395 455 26,500 960 Climbing Boston Center
06:22AM 43.4214 -73.5742 188° South 411 473 27,500 960 Climbing Boston Center
06:23AM 43.3056 -73.5756 180° South 416 479 28,500 1,020 Climbing Boston Center
06:24AM 43.1872 -73.5769 180° South 420 483 29,600 720 Climbing Boston Center
06:25AM 43.0786 -73.5775 180° South 426 490 30,000 180 Climbing Boston Center
06:26AM 42.9531 -73.5769 180° South 442 509 30,000  Level Boston Center
06:27AM 42.8244 -73.5769 180° South 456 525 30,000  Level Boston Center
06:28AM 42.6986 -73.5786 181° South 456 525 30,000  Level Boston Center
06:29AM 42.5492 -73.5778 180° South 455 524 30,000  Level Boston Center
06:30AM 42.4239 -73.5778 180° South 454 522 30,000  Level Boston Center
06:32AM 42.3072 -73.5778 180° South 455 524 30,000  Level Boston Center
06:33AM 42.1811 -73.5792 180° South 455 524 30,000  Level Boston Center
06:34AM 42.0472 -73.5792 180° South 455 524 30,000  Level Boston Center
06:35AM 41.9217 -73.5761 179° South 454 522 30,000  Level Boston Center
06:36AM 41.7986 -73.5203 161° South 465 535 30,000  Level Boston Center
06:37AM 41.6761 -73.4675 162° South 465 535 30,000  Level Boston Center
06:38AM 41.5514 -73.4117 161° South 471 542 30,000  Level Boston Center
06:39AM 41.4081 -73.3703 168° South 467 537 30,000  Level Boston Center
06:40AM 41.3281 -73.4611 220° Southwest 405 466 30,000  Level Boston Center
06:41AM 41.2681 -73.5733 235° Southwest 380 437 30,000  Level Boston Center
06:42AM 41.2075 -73.6903 235° Southwest 380 437 30,000  Level Boston Center
06:43AM 41.1478 -73.8056 235° Southwest 382 440 30,000  Level Boston Center
06:44AM 41.0800 -73.9172 231° Southwest 386 444 30,000  Level Boston Center
06:45AM 41.0136 -74.0297 232° Southwest 389 448 30,000  Level Boston Center
06:46AM 40.9467 -74.1422 232° Southwest 389 448 30,000 -540 Level Boston Center
06:47AM 40.8789 -74.2547 231° Southwest 390 449 29,000 -1,020 Descending Boston Center
06:48AM 40.8097 -74.3697 232° Southwest 398 458 28,000 -540 Descending Boston Center
06:49AM 40.7394 -74.4850 231° Southwest 383 441 28,000 -540 Level Boston Center
06:50AM 40.6747 -74.5922 232° Southwest 377 434 27,000 -1,140 Descending Boston Center
06:51AM 40.6069 -74.7033 231° Southwest 387 445 25,800 -1,200 Descending Boston Center
06:52AM 40.5344 -74.8117 229° Southwest 397 457 24,600 -900 Descending Boston Center
06:53AM 40.4606 -74.9158 227° Southwest 396 456 24,000 -300 Descending Boston Center
06:54AM 40.3917 -75.0142 227° Southwest 377 434 24,000 -240 Level Boston Center
06:55AM 40.3125 -75.1261 227° Southwest 367 422 23,600 -720 Descending New York Center
06:56AM 40.2486 -75.2172 227° Southwest 354 407 22,500 -900 Descending New York Center
06:57AM 40.1889 -75.3083 229° Southwest 349 402 21,900 -300 Descending New York Center
06:58AM 40.1336 -75.3917 229° Southwest 331 381 22,000  Climbing New York Center
06:59AM 40.0736 -75.4828 229° Southwest 316 364 22,000  Level New York Center
07:00AM 40.0181 -75.5683 230° Southwest 316 364 22,000  Level New York Center
07:01AM 39.9603 -75.6539 229° Southwest 321 369 22,000  Level New York Center
07:02AM 39.9022 -75.7444 230° Southwest 321 369 22,000  Level New York Center
07:03AM 39.8444 -75.8322 229° Southwest 326 375 22,000  Level New York Center
07:04AM 39.7864 -75.9228 230° Southwest 326 375 22,000 -660 Level New York Center
07:05AM 39.7239 -76.0153 229° Southwest 326 375 20,700 -1,320 Descending New York Center
07:06AM 39.6658 -76.1000 228° Southwest 331 381 19,400 -1,380 Descending New York Center
07:07AM 39.6386 -76.1922 249° West 309 356 18,000 -1,500 Descending New York Center
07:09AM 39.5500 -76.3500 234° Southwest 310 357 14,900 -1,740 Descending Potomac TRACON
07:10AM 39.5000 -76.4000 218° Southwest 292 336 13,000 -1,620 Descending Potomac TRACON
07:11AM 39.4333 -76.4500 210° Southwest 293 337 12,000 -600 Descending Potomac TRACON
07:12AM 39.3667 -76.5167 218° Southwest 293 337 11,900 -540 Descending Potomac TRACON
07:13AM 39.3000 -76.5667 210° Southwest 283 326 11,000 -1,020 Descending Potomac TRACON
07:14AM 39.2333 -76.6167 210° Southwest 276 318 10,000 -540 Descending Potomac TRACON
07:15AM 39.1667 -76.6667 210° Southwest 275 316 10,000  Level Potomac TRACON
07:16AM 39.1167 -76.7333 226° Southwest 249 287 10,000 -300 Level Potomac TRACON
07:17AM 39.0667 -76.8000 226° Southwest 261 300 9,400 -1,200 Descending Potomac TRACON
07:18AM 39.0167 -76.8500 218° Southwest 259 298 7,800 -1,740 Descending Potomac TRACON
07:19AM 38.9500 -76.9167 218° Southwest 266 306 6,100 -1,080 Descending Potomac TRACON
07:20AM 38.8833 -76.9333 191° South 280 322 5,700 -1,080 Descending Potomac TRACON
07:21AM 38.8167 -76.9500 191° South 273 314 4,100 -900 Descending Potomac TRACON
07:22AM 38.7500 -76.9500 180° South 226 260 4,000 -60 Descending Potomac TRACON
07:23AM 38.7000 -76.9333 165° South 194 223 4,000 -60 Level Potomac TRACON
07:24AM 38.6500 -76.9333 180° South 197 227 3,900 -600 Descending Potomac TRACON
07:24AM 38.6333 -76.9833 247° West 185 213 2,900 -780 Descending Potomac TRACON
07:25AM 38.6667 -77.0167 322° Northwest 167 192 2,500 -240 Descending Potomac TRACON
07:26AM 38.7167 -77.0167 360° North 166 191 2,500 -420 Level Potomac TRACON
07:27AM 38.7500 -77.0333 339° North 132 152 1,800 -600 Descending Potomac TRACON
07:28AM 38.7833 -77.0333 360° North 122 140 1,300 -600 Descending Potomac TRACON
07:29AM 38.8167 -77.0167 21° North 122 140 600 -720 Descending Potomac TRACON